CheckWX is a tool to help pilots better visualize weather data.  It is not intended as a substitute for an official pre-flight weather briefing.

05:54:00 UTC

KMDD METAR
Midland Airpark
Midland, Texas, USA
Current

19 mins ago

KMDD 250535Z AUTO 36006KT 10SM 16/00 A3010 RMK AO2 T01631001
Observed
Mar-25 @ 05:35 UTC
Wind
  • 360° at 6 KTS
Visibility
10 SM
Temperature
16°C / 61°F
Dewpoint
-0°C / 32°F
Humidity
34%
Altimeter
30.1" Hg
Pressure
1019.32 hPa
Previous

39 mins ago

KMDD 250515Z AUTO 33005KT 10SM 16/M01 A3009 RMK AO2 T01621008
Observed
Mar-25 @ 05:15 UTC
Wind
  • 330° at 5 KTS
Visibility
10 SM
Temperature
16°C / 61°F
Dewpoint
-1°C / 30°F
Humidity
31%
Altimeter
30.09" Hg
Pressure
1018.92 hPa
Previous

59 mins ago

KMDD 250455Z AUTO 05007KT 10SM 17/M01 A3010 RMK AO2 T01721007
Observed
Mar-25 @ 04:55 UTC
Wind
  • 050° at 7 KTS
Visibility
10 SM
Temperature
17°C / 63°F
Dewpoint
-1°C / 30°F
Humidity
30%
Altimeter
30.1" Hg
Pressure
1019.32 hPa